Time;durP1;ratioP1;P1;durP2;ratioP2;P2;SDS_P1;SDS_P2;PMS_P1;PMS_P2;Temp;Humidity;BMP_temperature;BMP_pressure;BME280_temperature;BME280_humidity;BME280_pressure;Samples;Min_cycle;Max_cycle;Signal;HPM_P1;HPM_P2
2022/09/18 00:00:48;;;;;;;;;;;;;;;70.81;0.00;100193.97;5101610;28;19924;-66
2022/09/18 00:03:15;;;;;;;;;;;;;;;73.03;0.00;100197.94;5103002;28;19998;-68
2022/09/18 00:05:42;;;;;;;;;;;;;;;73.52;0.00;100196.28;5099462;28;20267;-67
2022/09/18 00:08:08;;;;;;;;;;;;;;;72.58;0.00;100194.34;5091565;28;20372;-67
2022/09/18 00:10:41;;;;;;;;;;;;;;;67.11;0.00;100179.56;5101786;28;19919;-66
2022/09/18 00:13:08;;;;;;;;;;;;;;;64.94;0.00;100182.69;5097425;28;20363;-68
2022/09/18 00:15:35;;;;;;;;;;;;;;;64.66;0.00;100182.84;5099829;28;20010;-68
2022/09/18 00:18:01;;;;;;;;;;;;;;;65.69;0.00;100178.09;5095694;28;19963;-67
2022/09/18 00:20:27;;;;;;;;;;;;;;;68.55;0.00;100181.75;5085024;28;19931;-70
2022/09/18 00:22:54;;;;;;;;;;;;;;;71.43;0.00;100190.03;5097938;28;19927;-69
2022/09/18 00:25:20;;;;;;;;;;;;;;;70.88;0.00;100192.63;5099600;28;20029;-64
2022/09/18 00:27:47;;;;;;;;;;;;;;;68.89;0.00;100181.31;5077080;28;19932;-69
2022/09/18 00:30:13;;;;;;;;;;;;;;;67.24;0.00;100183.78;5083743;28;20294;-66
2022/09/18 00:32:39;;;;;;;;;;;;;;;69.34;0.00;100170.78;5105666;28;19923;-69
2022/09/18 00:35:06;;;;;;;;;;;;;;;67.13;0.00;100186.31;5088601;28;19958;-69
2022/09/18 00:37:32;;;;;;;;;;;;;;;69.88;0.00;100180.50;5082021;28;19920;-67
2022/09/18 00:39:58;;;;;;;;;;;;;;;69.18;0.00;100179.97;5106982;27;20069;-67
2022/09/18 00:42:25;;;;;;;;;;;;;;;70.78;0.00;100180.50;5107007;28;19946;-65
2022/09/18 00:44:51;;;;;;;;;;;;;;;71.08;0.00;100185.59;5091712;28;19927;-65
2022/09/18 00:47:34;;;;;;;;;;;;;;;67.50;0.00;100181.78;5089531;28;20053;-65
2022/09/18 00:50:03;;;;;;;;;;;;;;;69.41;0.00;100181.38;5103706;28;19972;-65
2022/09/18 00:52:36;;;;;;;;;;;;;;;69.25;0.00;100175.75;5090832;28;19972;-64
2022/09/18 00:55:06;;;;;;;;;;;;;;;67.30;0.00;100175.09;5106747;28;20014;-65
2022/09/18 00:57:34;;;;;;;;;;;;;;;65.72;0.55;100170.06;5108816;28;19924;-64
2022/09/18 01:00:08;;;;;;;;;;;;;;;66.52;0.14;100172.03;5086269;28;19923;-64
2022/09/18 01:02:35;;;;;;;;;;;;;;;66.46;0.19;100157.00;5106116;28;19926;-65
2022/09/18 01:05:01;;;;;;;;;;;;;;;66.69;0.00;100164.59;5089990;28;20309;-65
2022/09/18 01:07:46;;;;;;;;;;;;;;;64.02;0.54;100169.25;5109677;28;20412;-64
2022/09/18 01:10:12;;;;;;;;;;;;;;;63.25;1.28;100177.69;5091210;28;20405;-63
2022/09/18 01:12:52;;;;;;;;;;;;;;;60.24;1.35;100164.94;5088630;28;19920;-64
2022/09/18 01:15:25;;;;;;;;;;;;;;;57.46;3.05;100175.19;5106995;28;19927;-64
2022/09/18 01:17:51;;;;;;;;;;;;;;;56.91;3.66;100170.69;5085996;28;19920;-64
2022/09/18 01:20:30;;;;;;;;;;;;;;;55.59;4.93;100174.06;5088340;28;19919;-63
2022/09/18 01:22:59;;;;;;;;;;;;;;;55.51;5.48;100173.31;5092033;28;19969;-63
2022/09/18 01:25:58;;;;;;;;;;;;;;;54.52;6.11;100171.69;5081576;28;19979;-63
2022/09/18 01:28:24;;;;;;;;;;;;;;;54.27;6.54;100176.63;5073941;28;19920;-64
2022/09/18 01:30:55;;;;;;;;;;;;;;;54.08;5.85;100173.38;5083297;28;19977;-64
2022/09/18 01:33:35;;;;;;;;;;;;;;;54.02;6.70;100173.56;5112917;28;19919;-63
2022/09/18 01:36:04;;;;;;;;;;;;;;;54.13;5.83;100178.19;5086566;28;19920;-63
2022/09/18 01:38:40;;;;;;;;;;;;;;;53.32;6.87;100177.75;5089718;28;20029;-63
2022/09/18 01:41:19;;;;;;;;;;;;;;;52.18;7.06;100180.91;5092579;28;20266;-63
2022/09/18 01:43:48;;;;;;;;;;;;;;;53.23;6.33;100177.56;5091135;28;19927;-63
2022/09/18 01:46:18;;;;;;;;;;;;;;;53.21;6.27;100171.53;5088851;28;19924;-63
2022/09/18 01:48:51;;;;;;;;;;;;;;;52.75;6.62;100169.25;5085922;28;19983;-63
2022/09/18 01:51:36;;;;;;;;;;;;;;;53.38;6.48;100181.28;5084151;28;19924;-63
2022/09/18 01:54:06;;;;;;;;;;;;;;;52.84;7.11;100173.75;5122416;27;20359;-65
2022/09/18 01:56:41;;;;;;;;;;;;;;;52.90;7.31;100177.25;5067640;28;19915;-63
2022/09/18 01:59:14;;;;;;;;;;;;;;;51.94;7.71;100175.50;5080734;28;19928;-64
2022/09/18 02:01:52;;;;;;;;;;;;;;;52.53;7.56;100184.41;5084674;28;19934;-62
2022/09/18 02:04:23;;;;;;;;;;;;;;;52.89;7.60;100183.63;5084271;28;19924;-62
2022/09/18 02:07:04;;;;;;;;;;;;;;;52.93;7.61;100176.09;5082180;28;20435;-62
2022/09/18 02:09:31;;;;;;;;;;;;;;;53.18;7.54;100179.28;5102709;28;19924;-63
2022/09/18 02:12:00;;;;;;;;;;;;;;;53.08;7.39;100175.38;5089776;28;19931;-63
2022/09/18 02:14:45;;;;;;;;;;;;;;;51.73;8.13;100177.66;5087998;28;19970;-62
2022/09/18 02:17:33;;;;;;;;;;;;;;;51.76;8.03;100173.63;5083234;28;20005;-64
2022/09/18 02:20:04;;;;;;;;;;;;;;;51.30;8.61;100179.72;5076442;28;19952;-67
2022/09/18 02:22:33;;;;;;;;;;;;;;;50.99;9.43;100187.25;5081783;28;19928;-63
2022/09/18 02:25:01;;;;;;;;;;;;;;;51.49;8.65;100182.44;5080620;28;19916;-63
2022/09/18 02:27:29;;;;;;;;;;;;;;;52.10;8.76;100177.19;5071627;28;19920;-64
2022/09/18 02:29:56;;;;;;;;;;;;;;;52.18;8.16;100177.22;5080751;28;19970;-64
2022/09/18 02:32:22;;;;;;;;;;;;;;;51.77;9.18;100178.09;5085068;28;20011;-62
2022/09/18 02:34:49;;;;;;;;;;;;;;;51.37;9.58;100192.78;5087186;28;19928;-63
2022/09/18 02:37:39;;;;;;;;;;;;;;;50.04;10.28;100195.00;5082810;28;19935;-65
2022/09/18 02:40:14;;;;;;;;;;;;;;;48.70;12.40;100200.69;5086585;28;19920;-62
2022/09/18 02:42:46;;;;;;;;;;;;;;;50.42;10.96;100183.22;5086117;28;19928;-62
2022/09/18 02:45:31;;;;;;;;;;;;;;;51.18;10.46;100197.94;5083304;28;19920;-63
2022/09/18 02:48:16;;;;;;;;;;;;;;;50.93;10.31;100195.31;5082385;28;19920;-63
2022/09/18 02:50:50;;;;;;;;;;;;;;;49.69;11.91;100195.34;5086870;28;19920;-62
2022/09/18 02:53:23;;;;;;;;;;;;;;;49.62;12.02;100196.75;5088011;28;19930;-62
2022/09/18 02:56:01;;;;;;;;;;;;;;;49.26;12.00;100205.69;5080989;28;19925;-63
2022/09/18 02:58:49;;;;;;;;;;;;;;;49.41;12.10;100205.22;5082139;28;20309;-62
2022/09/18 03:01:17;;;;;;;;;;;;;;;50.09;11.76;100202.00;5075822;28;20399;-63
2022/09/18 03:03:43;;;;;;;;;;;;;;;48.76;12.84;100217.13;5079145;28;19935;-62
2022/09/18 03:06:11;;;;;;;;;;;;;;;49.52;12.30;100212.91;5084214;28;19920;-63
2022/09/18 03:08:38;;;;;;;;;;;;;;;49.98;11.98;100210.88;5080975;28;20011;-63
2022/09/18 03:11:05;;;;;;;;;;;;;;;49.58;12.33;100219.41;5081381;28;19932;-61
2022/09/18 03:13:31;;;;;;;;;;;;;;;49.46;12.41;100218.78;5081663;28;20011;-62
2022/09/18 03:15:58;;;;;;;;;;;;;;;49.27;12.05;100221.69;5068300;28;19920;-63
2022/09/18 03:18:25;;;;;;;;;;;;;;;49.79;12.03;100220.38;5084680;28;19924;-62
2022/09/18 03:20:54;;;;;;;;;;;;;;;50.12;11.96;100226.94;5086546;28;19933;-62
2022/09/18 03:23:22;;;;;;;;;;;;;;;49.91;11.29;100223.84;5086173;28;19928;-62
2022/09/18 03:25:51;;;;;;;;;;;;;;;49.47;11.94;100222.47;5070947;28;20340;-62
2022/09/18 03:28:18;;;;;;;;;;;;;;;50.06;11.83;100224.13;5083154;28;19924;-62
2022/09/18 03:30:46;;;;;;;;;;;;;;;49.60;12.13;100231.19;5085428;28;19943;-62
2022/09/18 03:33:12;;;;;;;;;;;;;;;49.93;11.70;100238.53;5082858;28;19920;-63
2022/09/18 03:35:41;;;;;;;;;;;;;;;49.49;11.88;100246.56;5080178;28;20375;-62
2022/09/18 03:38:08;;;;;;;;;;;;;;;49.36;11.85;100242.84;5090090;28;19948;-64
2022/09/18 03:40:34;;;;;;;;;;;;;;;49.93;11.81;100240.66;5087392;28;20354;-63
2022/09/18 03:43:04;;;;;;;;;;;;;;;49.58;11.76;100248.28;5086486;28;20362;-64
2022/09/18 03:45:31;;;;;;;;;;;;;;;50.15;11.43;100243.16;5088268;28;19931;-63
2022/09/18 03:47:57;;;;;;;;;;;;;;;49.33;11.45;100255.50;5089263;28;19930;-63
2022/09/18 03:50:24;;;;;;;;;;;;;;;49.17;12.27;100258.03;5086311;28;19924;-62
2022/09/18 03:52:51;;;;;;;;;;;;;;;49.54;11.47;100265.94;5105229;28;19963;-62
2022/09/18 03:55:43;;;;;;;;;;;;;;;49.15;11.93;100275.13;5099799;28;20397;-63
2022/09/18 03:58:40;;;;;;;;;;;;;;;49.94;11.28;100266.13;5058640;28;19990;-63
2022/09/18 04:01:32;;;;;;;;;;;;;;;48.85;12.62;100274.47;5099470;28;20054;-62
2022/09/18 04:04:25;;;;;;;;;;;;;;;49.09;12.56;100277.31;5071838;28;20023;-63
2022/09/18 04:07:17;;;;;;;;;;;;;;;49.09;12.12;100279.44;5104508;28;20368;-64
2022/09/18 04:10:13;;;;;;;;;;;;;;;48.91;12.32;100278.06;5050825;28;20019;-63
2022/09/18 04:12:39;;;;;;;;;;;;;;;49.51;12.50;100284.34;5102520;28;20014;-62
2022/09/18 04:15:15;;;;;;;;;;;;;;;49.30;12.47;100301.47;5090296;28;19919;-62
2022/09/18 04:17:42;;;;;;;;;;;;;;;48.99;12.44;100307.88;5091004;28;19930;-61
2022/09/18 04:20:08;;;;;;;;;;;;;;;49.15;12.54;100306.13;5094368;28;19965;-62
2022/09/18 04:22:35;;;;;;;;;;;;;;;49.35;12.54;100305.59;5089574;28;19958;-63
2022/09/18 04:25:01;;;;;;;;;;;;;;;49.25;12.65;100313.84;5086071;28;20010;-63
2022/09/18 04:27:28;;;;;;;;;;;;;;;49.10;12.83;100312.75;5101264;28;20421;-63
2022/09/18 04:29:54;;;;;;;;;;;;;;;49.27;12.41;100314.09;5099897;28;20005;-63
2022/09/18 04:32:22;;;;;;;;;;;;;;;48.72;13.42;100315.53;5085263;28;19920;-63
2022/09/18 04:34:49;;;;;;;;;;;;;;;49.15;12.64;100314.78;5083998;28;20320;-63
2022/09/18 04:37:15;;;;;;;;;;;;;;;48.72;13.42;100307.66;5070590;28;20013;-63
2022/09/18 04:39:45;;;;;;;;;;;;;;;49.36;12.41;100312.94;5088482;28;20432;-63
2022/09/18 04:42:12;;;;;;;;;;;;;;;49.48;13.01;100313.56;5085334;28;20088;-61
2022/09/18 04:44:39;;;;;;;;;;;;;;;49.46;13.10;100310.44;5086126;28;19926;-62
2022/09/18 04:47:07;;;;;;;;;;;;;;;49.53;12.35;100318.47;5091080;28;19973;-63
2022/09/18 04:49:36;;;;;;;;;;;;;;;49.44;12.91;100301.56;5106825;28;19960;-61
2022/09/18 04:52:02;;;;;;;;;;;;;;;49.49;13.09;100309.34;5090488;28;20028;-61
2022/09/18 04:54:28;;;;;;;;;;;;;;;49.51;13.04;100300.91;5085360;28;19970;-63
2022/09/18 04:56:56;;;;;;;;;;;;;;;49.37;12.78;100300.06;5090450;28;19996;-63
2022/09/18 04:59:22;;;;;;;;;;;;;;;49.43;12.74;100300.00;5088531;28;19920;-62
2022/09/18 05:01:53;;;;;;;;;;;;;;;49.35;12.88;100305.59;5081610;28;19957;-61
2022/09/18 05:04:19;;;;;;;;;;;;;;;49.40;12.94;100303.97;5086860;28;20809;-62
2022/09/18 05:07:05;;;;;;;;;;;;;;;49.31;13.44;100300.16;5080325;28;20010;-62
2022/09/18 05:09:35;;;;;;;;;;;;;;;49.23;13.19;100307.84;5088190;28;19920;-62
2022/09/18 05:12:03;;;;;;;;;;;;;;;49.01;13.72;100305.22;5089182;28;20297;-62
2022/09/18 05:14:34;;;;;;;;;;;;;;;48.23;14.20;100308.94;5073019;28;19935;-61
2022/09/18 05:17:03;;;;;;;;;;;;;;;47.96;14.37;100305.72;5081821;28;19928;-63
2022/09/18 05:19:37;;;;;;;;;;;;;;;48.42;14.00;100312.66;5067479;28;19960;-61
2022/09/18 05:22:10;;;;;;;;;;;;;;;48.66;13.43;100306.97;5069158;28;19920;-62
2022/09/18 05:24:41;;;;;;;;;;;;;;;48.98;13.18;100312.09;5055497;28;19925;-61
2022/09/18 05:27:07;;;;;;;;;;;;;;;48.92;13.73;100309.25;5066153;28;19925;-65
2022/09/18 05:29:34;;;;;;;;;;;;;;;48.72;13.58;100309.78;5067604;28;20026;-64
2022/09/18 05:32:09;;;;;;;;;;;;;;;48.67;13.55;100313.50;5066341;28;19936;-62
2022/09/18 05:34:36;;;;;;;;;;;;;;;48.46;13.24;100324.69;5067467;28;19930;-62
2022/09/18 05:37:03;;;;;;;;;;;;;;;48.79;13.32;100311.25;5066734;28;19968;-62
2022/09/18 05:39:30;;;;;;;;;;;;;;;47.86;12.91;100307.38;5068910;28;19920;-61
2022/09/18 05:41:59;;;;;;;;;;;;;;;47.80;13.01;100310.28;5067531;28;20019;-63
2022/09/18 05:44:27;;;;;;;;;;;;;;;47.74;12.71;100302.97;5065612;28;19920;-63
2022/09/18 05:46:54;;;;;;;;;;;;;;;47.61;12.92;100309.38;5065361;28;19924;-63
2022/09/18 05:49:20;;;;;;;;;;;;;;;47.75;13.02;100302.44;5060819;28;19945;-63
2022/09/18 05:51:47;;;;;;;;;;;;;;;46.72;12.97;100304.72;5066040;28;20046;-63
2022/09/18 05:54:16;;;;;;;;;;;;;;;47.08;11.96;100313.50;5063817;28;20395;-62
2022/09/18 05:56:46;;;;;;;;;;;;;;;46.81;11.71;100312.28;5070333;28;19921;-62
2022/09/18 05:59:13;;;;;;;;;;;;;;;46.71;11.62;100316.75;5069954;28;19928;-63
2022/09/18 06:01:42;;;;;;;;;;;;;;;47.12;10.11;100319.78;5061873;28;19963;-63
2022/09/18 06:04:19;;;;;;;;;;;;;;;47.49;9.49;100314.38;5056781;28;20395;-63
2022/09/18 06:06:57;;;;;;;;;;;;;;;47.49;9.38;100313.59;5068320;28;20298;-62
2022/09/18 06:09:25;;;;;;;;;;;;;;;47.63;8.53;100309.59;5070714;28;20450;-64
2022/09/18 06:11:51;;;;;;;;;;;;;;;47.85;9.00;100317.31;5048316;28;19921;-65
2022/09/18 06:14:18;;;;;;;;;;;;;;;47.87;8.70;100314.69;5064571;28;20011;-64
2022/09/18 06:16:46;;;;;;;;;;;;;;;47.78;7.98;100312.13;5074947;28;19920;-63
2022/09/18 06:19:12;;;;;;;;;;;;;;;47.69;8.04;100321.09;5083778;28;19924;-64
2022/09/18 06:21:41;;;;;;;;;;;;;;;47.55;8.03;100314.34;5084220;28;20432;-65
2022/09/18 06:24:10;;;;;;;;;;;;;;;47.38;8.01;100316.53;5085545;28;19921;-64
2022/09/18 06:26:50;;;;;;;;;;;;;;;46.55;8.41;100321.22;5082769;28;19987;-62
2022/09/18 06:29:19;;;;;;;;;;;;;;;46.30;8.26;100317.28;5076528;28;19920;-63
2022/09/18 06:31:55;;;;;;;;;;;;;;;46.85;8.54;100319.34;5079220;28;19999;-62
2022/09/18 06:34:24;;;;;;;;;;;;;;;47.04;8.42;100324.50;5080504;28;20576;-62
2022/09/18 06:36:54;;;;;;;;;;;;;;;47.07;8.56;100324.25;5084388;28;20007;-63
2022/09/18 06:39:44;;;;;;;;;;;;;;;47.04;8.48;100315.88;5080035;28;19920;-65
2022/09/18 06:42:23;;;;;;;;;;;;;;;47.05;8.74;100314.59;5085823;28;19923;-63
2022/09/18 06:45:02;;;;;;;;;;;;;;;47.10;8.82;100320.31;5079872;28;19920;-63
2022/09/18 06:47:29;;;;;;;;;;;;;;;46.96;9.00;100324.28;5082910;28;20003;-63
2022/09/18 06:49:56;;;;;;;;;;;;;;;46.74;9.21;100325.09;5082435;28;19916;-62
2022/09/18 06:52:22;;;;;;;;;;;;;;;46.87;9.04;100319.63;5083449;28;19943;-63
2022/09/18 06:54:48;;;;;;;;;;;;;;;46.81;8.82;100318.84;5086267;28;19923;-64
2022/09/18 06:57:30;;;;;;;;;;;;;;;46.86;8.97;100312.28;5085369;28;19926;-63
2022/09/18 06:59:56;;;;;;;;;;;;;;;46.53;9.21;100315.22;5079353;28;19996;-65
2022/09/18 07:02:23;;;;;;;;;;;;;;;45.35;9.68;100306.44;5087979;28;19931;-63
2022/09/18 07:05:23;;;;;;;;;;;;;;;44.96;10.31;100314.84;5075124;28;19928;-64
2022/09/18 07:07:50;;;;;;;;;;;;;;;45.69;9.69;100303.66;5087043;28;19927;-64
2022/09/18 07:10:17;;;;;;;;;;;;;;;45.81;9.31;100308.13;5087926;28;19920;-63
2022/09/18 07:12:47;;;;;;;;;;;;;;;45.78;9.41;100304.19;5088703;28;19928;-62
2022/09/18 07:15:15;;;;;;;;;;;;;;;45.85;9.66;100305.00;5074338;28;19920;-63
2022/09/18 07:17:42;;;;;;;;;;;;;;;46.30;9.31;100297.97;5086916;28;19928;-65
2022/09/18 07:20:10;;;;;;;;;;;;;;;46.37;8.98;100296.66;5074409;28;19958;-62
2022/09/18 07:22:40;;;;;;;;;;;;;;;46.63;8.90;100294.28;5074507;28;19916;-64
2022/09/18 07:25:07;;;;;;;;;;;;;;;46.69;9.12;100297.16;5085803;28;19920;-64
2022/09/18 07:27:34;;;;;;;;;;;;;;;46.66;9.50;100296.09;5076159;28;20384;-66
2022/09/18 07:30:01;;;;;;;;;;;;;;;46.55;9.72;100286.72;5075950;28;19935;-64
2022/09/18 07:32:28;;;;;;;;;;;;;;;46.49;9.15;100291.69;5074305;28;19924;-65
2022/09/18 07:34:56;;;;;;;;;;;;;;;46.28;9.20;100291.94;5073355;28;19920;-64
2022/09/18 07:37:28;;;;;;;;;;;;;;;46.35;9.73;100299.28;5075715;28;19962;-62
2022/09/18 07:40:11;;;;;;;;;;;;;;;46.29;9.23;100296.38;5080712;28;19927;-64
2022/09/18 07:43:09;;;;;;;;;;;;;;;46.23;9.47;100301.38;5082160;28;19927;-66
2022/09/18 07:45:43;;;;;;;;;;;;;;;46.20;9.50;100298.75;5077849;28;19919;-63
2022/09/18 07:48:09;;;;;;;;;;;;;;;46.12;9.37;100304.25;5097690;28;19928;-63
2022/09/18 07:50:41;;;;;;;;;;;;;;;45.99;9.82;100301.88;5078338;28;20022;-64
2022/09/18 07:53:09;;;;;;;;;;;;;;;45.97;9.95;100309.47;5078197;28;19927;-64
2022/09/18 07:55:38;;;;;;;;;;;;;;;45.93;9.62;100297.41;5083473;28;20397;-64
2022/09/18 07:58:05;;;;;;;;;;;;;;;45.73;9.46;100302.09;5077162;28;20503;-64
2022/09/18 08:00:53;;;;;;;;;;;;;;;45.87;10.04;100305.25;5079526;28;20322;-64
2022/09/18 08:03:24;;;;;;;;;;;;;;;45.69;9.99;100301.56;5088869;28;20070;-63
2022/09/18 08:05:59;;;;;;;;;;;;;;;45.42;9.81;100302.25;5089873;28;19931;-63
2022/09/18 08:08:28;;;;;;;;;;;;;;;45.60;10.23;100303.88;5092720;28;19977;-63
2022/09/18 08:11:15;;;;;;;;;;;;;;;45.66;9.60;100311.25;5101657;28;20023;-62
2022/09/18 08:13:53;;;;;;;;;;;;;;;45.77;9.97;100301.84;5108001;28;20195;-64
2022/09/18 08:16:40;;;;;;;;;;;;;;;45.95;10.15;100303.41;5084858;28;20022;-63
2022/09/18 08:19:16;;;;;;;;;;;;;;;45.91;10.01;100302.91;5080610;28;19926;-63
2022/09/18 08:22:04;;;;;;;;;;;;;;;45.72;9.69;100300.53;5068585;28;19916;-63
2022/09/18 08:24:32;;;;;;;;;;;;;;;45.89;10.20;100305.53;5081536;28;19942;-65
2022/09/18 08:27:02;;;;;;;;;;;;;;;45.57;10.56;100305.69;5078794;28;19963;-64
2022/09/18 08:29:30;;;;;;;;;;;;;;;45.57;10.32;100317.19;5084312;28;19920;-65
2022/09/18 08:32:03;;;;;;;;;;;;;;;45.58;10.49;100317.97;5083064;28;20397;-65
2022/09/18 08:34:31;;;;;;;;;;;;;;;45.49;10.23;100314.03;5080664;28;19966;-65
2022/09/18 08:36:57;;;;;;;;;;;;;;;45.35;10.56;100314.25;5077178;28;19931;-62
2022/09/18 08:39:43;;;;;;;;;;;;;;;45.38;10.50;100321.81;5084284;28;19932;-64
2022/09/18 08:42:34;;;;;;;;;;;;;;;45.29;10.27;100324.94;5088381;28;19960;-65
2022/09/18 08:45:06;;;;;;;;;;;;;;;45.24;10.16;100320.69;5084517;28;19920;-64
2022/09/18 08:47:42;;;;;;;;;;;;;;;45.28;10.09;100323.38;5086719;28;20010;-64
2022/09/18 08:50:32;;;;;;;;;;;;;;;45.14;10.39;100330.84;5085967;28;19964;-62
2022/09/18 08:53:02;;;;;;;;;;;;;;;45.08;10.99;100336.56;5057342;28;19994;-64
2022/09/18 08:55:57;;;;;;;;;;;;;;;44.99;10.73;100325.28;5060943;28;19927;-64
2022/09/18 08:59:03;;;;;;;;;;;;;;;44.94;10.65;100334.66;5044311;28;20391;-63
2022/09/18 09:01:54;;;;;;;;;;;;;;;44.86;10.75;100333.53;5065609;28;19950;-62
2022/09/18 09:04:27;;;;;;;;;;;;;;;44.78;11.43;100332.47;5084195;28;19925;-62
2022/09/18 09:07:18;;;;;;;;;;;;;;;44.79;11.05;100336.88;5086322;28;20380;-63
2022/09/18 09:10:21;;;;;;;;;;;;;;;44.80;10.88;100336.38;5083907;28;19920;-66
2022/09/18 09:13:06;;;;;;;;;;;;;;;44.88;10.39;100342.44;4990686;28;19977;-63
2022/09/18 09:15:40;;;;;;;;;;;;;;;44.80;11.24;100341.34;5083051;28;19928;-66
2022/09/18 09:18:09;;;;;;;;;;;;;;;44.66;10.92;100336.53;5086001;28;20495;-63
2022/09/18 09:20:36;;;;;;;;;;;;;;;44.67;11.19;100338.91;5082737;28;19928;-65
2022/09/18 09:23:16;;;;;;;;;;;;;;;44.67;11.00;100335.25;5088962;28;19920;-63
2022/09/18 09:26:00;;;;;;;;;;;;;;;44.56;10.94;100345.34;5089815;28;19921;-67
2022/09/18 09:28:50;;;;;;;;;;;;;;;44.45;11.03;100338.72;5088223;28;19926;-65
2022/09/18 09:31:45;;;;;;;;;;;;;;;44.46;11.26;100346.03;5051402;28;19931;-64
2022/09/18 09:34:43;;;;;;;;;;;;;;;44.29;11.27;100335.22;5084562;28;19926;-64
2022/09/18 09:37:48;;;;;;;;;;;;;;;44.25;11.66;100333.88;5087413;28;19931;-63
2022/09/18 09:40:23;;;;;;;;;;;;;;;44.27;11.30;100337.00;5090721;28;20006;-64
2022/09/18 09:42:58;;;;;;;;;;;;;;;44.22;11.32;100337.75;5091671;28;19920;-65
2022/09/18 09:45:27;;;;;;;;;;;;;;;43.91;11.62;100342.13;5092789;28;19927;-63
2022/09/18 09:48:01;;;;;;;;;;;;;;;44.02;11.58;100341.47;5090199;28;19920;-64
2022/09/18 09:50:29;;;;;;;;;;;;;;;44.05;11.84;100340.44;5085897;28;19928;-64
2022/09/18 09:52:58;;;;;;;;;;;;;;;44.09;11.80;100335.31;5083494;28;19973;-65
2022/09/18 09:55:28;;;;;;;;;;;;;;;44.15;12.01;100336.13;5079754;28;19920;-64
2022/09/18 09:58:05;;;;;;;;;;;;;;;44.07;11.62;100337.06;5084439;28;19972;-65
2022/09/18 10:00:41;;;;;;;;;;;;;;;44.01;11.97;100337.81;5087449;28;19967;-63
2022/09/18 10:03:21;;;;;;;;;;;;;;;43.93;11.97;100351.00;5079126;28;19920;-63
2022/09/18 10:05:59;;;;;;;;;;;;;;;43.93;12.03;100339.53;5087805;28;20007;-65
2022/09/18 10:08:40;;;;;;;;;;;;;;;43.87;12.17;100350.16;5085667;28;19943;-63
2022/09/18 10:11:10;;;;;;;;;;;;;;;43.91;12.00;100353.59;5090292;28;20399;-63
2022/09/18 10:13:42;;;;;;;;;;;;;;;43.87;12.14;100352.25;5079635;28;19924;-63
2022/09/18 10:16:29;;;;;;;;;;;;;;;43.84;12.01;100342.59;5089018;28;19928;-62
2022/09/18 10:18:58;;;;;;;;;;;;;;;43.70;12.39;100349.22;5080625;28;19923;-61
2022/09/18 10:21:27;;;;;;;;;;;;;;;43.70;12.19;100346.34;5086141;28;19926;-64
2022/09/18 10:24:17;;;;;;;;;;;;;;;43.68;12.27;100340.31;5087244;28;19935;-63
2022/09/18 10:26:50;;;;;;;;;;;;;;;43.67;12.29;100350.19;5060127;28;19955;-63
2022/09/18 10:29:20;;;;;;;;;;;;;;;43.69;12.26;100341.91;5086531;28;21430;-63
2022/09/18 10:31:52;;;;;;;;;;;;;;;43.63;12.02;100341.00;5087143;28;19930;-62
2022/09/18 10:34:30;;;;;;;;;;;;;;;43.58;12.10;100341.75;5094169;28;19945;-63
2022/09/18 10:36:56;;;;;;;;;;;;;;;43.54;12.23;100346.91;5097512;27;19920;-61
2022/09/18 10:39:31;;;;;;;;;;;;;;;43.60;12.16;100345.69;5085403;28;19954;-60
2022/09/18 10:42:05;;;;;;;;;;;;;;;43.51;11.79;100350.78;5080039;28;19920;-61
2022/09/18 10:44:35;;;;;;;;;;;;;;;43.52;12.07;100344.56;5108944;28;19928;-61
2022/09/18 10:47:11;;;;;;;;;;;;;;;43.48;11.84;100343.22;5091380;28;19920;-59
2022/09/18 10:49:49;;;;;;;;;;;;;;;43.41;11.91;100350.91;5083107;28;19989;-60
2022/09/18 10:52:19;;;;;;;;;;;;;;;43.30;12.14;100350.81;5091714;28;19920;-61
2022/09/18 10:55:07;;;;;;;;;;;;;;;43.33;12.15;100349.78;5084238;27;20007;-60
2022/09/18 10:57:34;;;;;;;;;;;;;;;43.33;12.24;100346.16;5079699;28;19927;-60
2022/09/18 11:00:24;;;;;;;;;;;;;;;43.32;11.93;100353.94;5105814;27;19920;-60
2022/09/18 11:02:55;;;;;;;;;;;;;;;43.04;12.16;100355.63;5086195;28;20061;-60
2022/09/18 11:05:22;;;;;;;;;;;;;;;42.94;12.17;100354.19;5085076;28;20031;-60
2022/09/18 11:07:52;;;;;;;;;;;;;;;42.88;12.26;100350.41;5081334;28;20395;-60
2022/09/18 11:10:19;;;;;;;;;;;;;;;42.87;12.29;100357.41;5126676;27;19952;-60
2022/09/18 11:12:47;;;;;;;;;;;;;;;42.78;12.43;100364.06;5090485;28;19923;-60
2022/09/18 11:15:17;;;;;;;;;;;;;;;42.87;12.24;100366.78;5091812;27;19920;-61
2022/09/18 11:17:50;;;;;;;;;;;;;;;42.88;12.05;100371.22;5089427;28;20010;-61
2022/09/18 11:20:22;;;;;;;;;;;;;;;42.86;11.72;100359.50;5108248;27;19949;-60
2022/09/18 11:23:12;;;;;;;;;;;;;;;42.68;11.90;100369.09;5088564;28;20373;-60
2022/09/18 11:25:40;;;;;;;;;;;;;;;42.78;11.70;100367.72;5098728;27;20440;-60
2022/09/18 11:28:26;;;;;;;;;;;;;;;42.87;11.85;100368.84;5080176;28;19916;-60
2022/09/18 11:30:58;;;;;;;;;;;;;;;42.83;11.48;100366.22;5103559;28;19916;-60
2022/09/18 11:33:51;;;;;;;;;;;;;;;42.82;11.88;100371.13;5099712;28;19923;-60
2022/09/18 11:36:27;;;;;;;;;;;;;;;42.81;11.55;100378.16;5081508;28;20009;-60
2022/09/18 11:38:58;;;;;;;;;;;;;;;42.31;11.38;100385.88;5103026;28;19927;-60
2022/09/18 11:41:34;;;;;;;;;;;;;;;42.59;11.56;100389.25;5094490;28;19926;-61
2022/09/18 11:44:03;;;;;;;;;;;;;;;42.63;11.45;100383.31;5084729;28;19920;-60
2022/09/18 11:46:31;;;;;;;;;;;;;;;42.62;11.69;100388.25;5107987;28;20342;-60
2022/09/18 11:49:25;;;;;;;;;;;;;;;42.40;11.50;100382.94;5088193;28;19920;-61
2022/09/18 11:52:03;;;;;;;;;;;;;;;42.57;11.85;100371.81;5098409;28;19926;-61
2022/09/18 11:54:42;;;;;;;;;;;;;;;42.35;11.18;100371.38;5081488;28;20001;-60
2022/09/18 11:57:16;;;;;;;;;;;;;;;42.31;11.16;100385.09;5099325;28;19943;-61
2022/09/18 11:59:55;;;;;;;;;;;;;;;42.22;10.96;100388.84;5099985;28;20384;-60
2022/09/18 12:02:40;;;;;;;;;;;;;;;42.11;11.48;100386.56;5086594;28;19928;-60
2022/09/18 12:05:23;;;;;;;;;;;;;;;42.10;11.01;100387.84;5099799;28;19920;-59
2022/09/18 12:07:58;;;;;;;;;;;;;;;42.15;11.58;100390.00;5101192;28;19920;-61
2022/09/18 12:10:28;;;;;;;;;;;;;;;42.16;11.38;100390.78;5081339;28;19998;-60
2022/09/18 12:13:02;;;;;;;;;;;;;;;42.08;11.35;100393.25;5102705;28;19920;-61
2022/09/18 12:15:32;;;;;;;;;;;;;;;42.10;11.34;100393.56;5113566;28;19930;-61
2022/09/18 12:17:59;;;;;;;;;;;;;;;42.14;11.29;100399.84;5084734;28;19928;-60
2022/09/18 12:20:32;;;;;;;;;;;;;;;42.06;11.18;100395.78;5107482;28;19923;-59
2022/09/18 12:22:59;;;;;;;;;;;;;;;42.04;11.38;100401.22;5088027;28;20352;-59
2022/09/18 12:25:44;;;;;;;;;;;;;;;41.80;11.14;100395.53;5094536;28;19922;-60
2022/09/18 12:28:42;;;;;;;;;;;;;;;41.69;11.45;100408.81;5085154;28;19928;-60
2022/09/18 12:31:27;;;;;;;;;;;;;;;41.84;11.66;100409.66;5086662;28;20007;-60
2022/09/18 12:33:58;;;;;;;;;;;;;;;41.91;11.36;100409.25;5117212;27;20379;-60
2022/09/18 12:36:36;;;;;;;;;;;;;;;41.79;11.03;100416.03;5101057;27;20393;-60
2022/09/18 12:39:14;;;;;;;;;;;;;;;41.54;11.35;100415.25;5103510;28;20298;-60
2022/09/18 12:41:40;;;;;;;;;;;;;;;41.52;11.13;100417.78;5119943;27;20301;-59
2022/09/18 12:44:07;;;;;;;;;;;;;;;41.47;11.35;100412.75;5103906;27;20294;-59
2022/09/18 12:46:51;;;;;;;;;;;;;;;41.65;11.49;100408.97;5129514;27;19974;-60
2022/09/18 12:49:29;;;;;;;;;;;;;;;41.72;11.29;100417.19;5112735;27;19919;-59
2022/09/18 12:52:08;;;;;;;;;;;;;;;41.82;11.62;100417.88;5087150;28;19943;-61
2022/09/18 12:55:03;;;;;;;;;;;;;;;41.85;11.17;100416.94;5127393;27;19920;-59
2022/09/18 12:57:29;;;;;;;;;;;;;;;41.94;11.50;100428.25;5101844;27;19919;-61
2022/09/18 13:00:10;;;;;;;;;;;;;;;41.64;11.41;100431.00;5105152;27;19924;-59
2022/09/18 13:02:51;;;;;;;;;;;;;;;41.63;11.95;100429.44;5107841;28;19919;-61
2022/09/18 13:05:33;;;;;;;;;;;;;;;41.66;11.88;100432.63;5106357;28;20335;-60
2022/09/18 13:08:24;;;;;;;;;;;;;;;41.69;11.54;100432.44;5100861;28;19931;-60
2022/09/18 13:10:54;;;;;;;;;;;;;;;41.61;11.88;100442.59;5100536;28;19923;-60
2022/09/18 13:13:20;;;;;;;;;;;;;;;41.56;12.20;100440.44;5106036;28;19931;-61